sensor_id;sensor_type;location;lat;lon;timestamp;P1;durP1;ratioP1;P2;durP2;ratioP2
68010;SDS011;54794;48.348;7.878;2023-04-12T00:01:05;0.73;;;0.40;;
68010;SDS011;54794;48.348;7.878;2023-04-12T00:03:32;0.75;;;0.40;;
68010;SDS011;54794;48.348;7.878;2023-04-12T00:08:28;2.40;;;0.40;;
68010;SDS011;54794;48.348;7.878;2023-04-12T00:10:58;1.33;;;0.40;;
68010;SDS011;54794;48.348;7.878;2023-04-12T00:13:27;1.38;;;0.50;;
68010;SDS011;54794;48.348;7.878;2023-04-12T00:15:55;1.95;;;0.50;;
68010;SDS011;54794;48.348;7.878;2023-04-12T00:18:21;1.23;;;0.38;;
68010;SDS011;54794;48.348;7.878;2023-04-12T00:20:50;1.20;;;0.60;;
68010;SDS011;54794;48.348;7.878;2023-04-12T00:23:18;1.38;;;0.40;;
68010;SDS011;54794;48.348;7.878;2023-04-12T00:25:45;0.88;;;0.50;;
68010;SDS011;54794;48.348;7.878;2023-04-12T00:28:12;1.63;;;0.45;;
68010;SDS011;54794;48.348;7.878;2023-04-12T00:30:41;1.10;;;0.50;;
68010;SDS011;54794;48.348;7.878;2023-04-12T00:33:08;1.52;;;0.40;;
68010;SDS011;54794;48.348;7.878;2023-04-12T00:35:35;0.80;;;0.40;;
68010;SDS011;54794;48.348;7.878;2023-04-12T00:38:02;1.65;;;0.43;;
68010;SDS011;54794;48.348;7.878;2023-04-12T00:40:31;0.63;;;0.35;;
68010;SDS011;54794;48.348;7.878;2023-04-12T00:42:58;0.95;;;0.50;;
68010;SDS011;54794;48.348;7.878;2023-04-12T00:45:25;1.27;;;0.50;;
68010;SDS011;54794;48.348;7.878;2023-04-12T00:47:53;1.25;;;0.47;;
68010;SDS011;54794;48.348;7.878;2023-04-12T00:50:21;1.52;;;0.40;;
68010;SDS011;54794;48.348;7.878;2023-04-12T00:55:17;0.60;;;0.32;;
68010;SDS011;54794;48.348;7.878;2023-04-12T00:57:44;1.23;;;0.30;;
68010;SDS011;54794;48.348;7.878;2023-04-12T01:00:12;0.70;;;0.40;;
68010;SDS011;54794;48.348;7.878;2023-04-12T01:02:42;0.88;;;0.30;;
68010;SDS011;54794;48.348;7.878;2023-04-12T01:05:17;1.10;;;0.47;;
68010;SDS011;54794;48.348;7.878;2023-04-12T01:16:52;1.27;;;0.32;;
68010;SDS011;54794;48.348;7.878;2023-04-12T01:22:03;0.60;;;0.40;;
68010;SDS011;54794;48.348;7.878;2023-04-12T01:27:55;2.40;;;0.40;;
68010;SDS011;54794;48.348;7.878;2023-04-12T01:30:25;0.77;;;0.30;;
68010;SDS011;54794;48.348;7.878;2023-04-12T01:32:55;1.33;;;0.47;;
68010;SDS011;54794;48.348;7.878;2023-04-12T01:35:27;0.60;;;0.30;;
68010;SDS011;54794;48.348;7.878;2023-04-12T01:37:59;1.13;;;0.40;;
68010;SDS011;54794;48.348;7.878;2023-04-12T01:40:28;0.60;;;0.30;;
68010;SDS011;54794;48.348;7.878;2023-04-12T01:43:07;1.73;;;0.30;;
68010;SDS011;54794;48.348;7.878;2023-04-12T01:45:39;0.88;;;0.40;;
68010;SDS011;54794;48.348;7.878;2023-04-12T01:48:06;0.50;;;0.30;;
68010;SDS011;54794;48.348;7.878;2023-04-12T01:53:20;0.88;;;0.40;;
68010;SDS011;54794;48.348;7.878;2023-04-12T01:56:09;1.27;;;0.38;;
68010;SDS011;54794;48.348;7.878;2023-04-12T02:01:05;0.77;;;0.32;;
68010;SDS011;54794;48.348;7.878;2023-04-12T02:03:35;1.17;;;0.40;;
68010;SDS011;54794;48.348;7.878;2023-04-12T02:06:07;0.98;;;0.20;;
68010;SDS011;54794;48.348;7.878;2023-04-12T02:08:35;2.03;;;0.35;;
68010;SDS011;54794;48.348;7.878;2023-04-12T02:11:09;0.20;;;0.17;;
68010;SDS011;54794;48.348;7.878;2023-04-12T02:13:37;1.08;;;0.30;;
68010;SDS011;54794;48.348;7.878;2023-04-12T02:16:04;1.20;;;0.45;;
68010;SDS011;54794;48.348;7.878;2023-04-12T02:18:36;0.40;;;0.30;;
68010;SDS011;54794;48.348;7.878;2023-04-12T02:21:03;0.43;;;0.20;;
68010;SDS011;54794;48.348;7.878;2023-04-12T02:23:30;0.85;;;0.40;;
68010;SDS011;54794;48.348;7.878;2023-04-12T02:25:57;0.50;;;0.22;;
68010;SDS011;54794;48.348;7.878;2023-04-12T02:28:23;0.65;;;0.30;;
68010;SDS011;54794;48.348;7.878;2023-04-12T02:30:50;0.82;;;0.30;;
68010;SDS011;54794;48.348;7.878;2023-04-12T02:33:19;0.57;;;0.43;;
68010;SDS011;54794;48.348;7.878;2023-04-12T02:35:53;1.77;;;0.45;;
68010;SDS011;54794;48.348;7.878;2023-04-12T02:38:22;3.50;;;0.40;;
68010;SDS011;54794;48.348;7.878;2023-04-12T02:40:49;1.58;;;0.50;;
68010;SDS011;54794;48.348;7.878;2023-04-12T02:43:16;1.15;;;0.52;;
68010;SDS011;54794;48.348;7.878;2023-04-12T02:45:43;0.77;;;0.40;;
68010;SDS011;54794;48.348;7.878;2023-04-12T02:48:10;0.68;;;0.35;;
68010;SDS011;54794;48.348;7.878;2023-04-12T02:50:37;0.88;;;0.30;;
68010;SDS011;54794;48.348;7.878;2023-04-12T02:53:04;0.73;;;0.22;;
68010;SDS011;54794;48.348;7.878;2023-04-12T02:55:31;0.25;;;0.22;;
68010;SDS011;54794;48.348;7.878;2023-04-12T02:57:58;0.68;;;0.30;;
68010;SDS011;54794;48.348;7.878;2023-04-12T03:00:25;2.45;;;0.35;;
68010;SDS011;54794;48.348;7.878;2023-04-12T03:05:20;0.70;;;0.30;;
68010;SDS011;54794;48.348;7.878;2023-04-12T03:07:47;0.52;;;0.30;;
68010;SDS011;54794;48.348;7.878;2023-04-12T03:10:14;0.75;;;0.30;;
68010;SDS011;54794;48.348;7.878;2023-04-12T03:12:41;0.40;;;0.20;;
68010;SDS011;54794;48.348;7.878;2023-04-12T03:15:08;0.50;;;0.22;;
68010;SDS011;54794;48.348;7.878;2023-04-12T03:17:36;0.57;;;0.30;;
68010;SDS011;54794;48.348;7.878;2023-04-12T03:20:06;0.52;;;0.32;;
68010;SDS011;54794;48.348;7.878;2023-04-12T03:22:35;0.95;;;0.32;;
68010;SDS011;54794;48.348;7.878;2023-04-12T03:25:03;1.23;;;0.40;;
68010;SDS011;54794;48.348;7.878;2023-04-12T03:27:31;0.90;;;0.52;;
68010;SDS011;54794;48.348;7.878;2023-04-12T03:29:58;1.38;;;0.47;;
68010;SDS011;54794;48.348;7.878;2023-04-12T03:32:24;1.00;;;0.38;;
68010;SDS011;54794;48.348;7.878;2023-04-12T03:34:51;1.52;;;0.30;;
68010;SDS011;54794;48.348;7.878;2023-04-12T03:37:18;1.77;;;0.50;;
68010;SDS011;54794;48.348;7.878;2023-04-12T03:39:45;1.25;;;0.40;;
68010;SDS011;54794;48.348;7.878;2023-04-12T03:42:13;1.38;;;0.40;;
68010;SDS011;54794;48.348;7.878;2023-04-12T03:44:57;0.52;;;0.30;;
68010;SDS011;54794;48.348;7.878;2023-04-12T03:47:24;0.95;;;0.20;;
68010;SDS011;54794;48.348;7.878;2023-04-12T03:49:53;0.50;;;0.30;;
68010;SDS011;54794;48.348;7.878;2023-04-12T03:52:38;0.28;;;0.20;;
68010;SDS011;54794;48.348;7.878;2023-04-12T03:55:05;0.77;;;0.30;;
68010;SDS011;54794;48.348;7.878;2023-04-12T03:57:33;0.63;;;0.20;;
68010;SDS011;54794;48.348;7.878;2023-04-12T04:00:00;0.52;;;0.20;;
68010;SDS011;54794;48.348;7.878;2023-04-12T04:02:27;0.88;;;0.30;;
68010;SDS011;54794;48.348;7.878;2023-04-12T04:04:57;0.93;;;0.30;;
68010;SDS011;54794;48.348;7.878;2023-04-12T04:07:24;0.52;;;0.20;;
68010;SDS011;54794;48.348;7.878;2023-04-12T04:09:52;0.45;;;0.20;;
68010;SDS011;54794;48.348;7.878;2023-04-12T04:12:20;0.40;;;0.20;;
68010;SDS011;54794;48.348;7.878;2023-04-12T04:14:47;2.05;;;0.50;;
68010;SDS011;54794;48.348;7.878;2023-04-12T04:17:14;0.30;;;0.20;;
68010;SDS011;54794;48.348;7.878;2023-04-12T04:19:41;0.60;;;0.35;;
68010;SDS011;54794;48.348;7.878;2023-04-12T04:22:08;0.65;;;0.30;;
68010;SDS011;54794;48.348;7.878;2023-04-12T04:24:35;1.20;;;0.35;;
68010;SDS011;54794;48.348;7.878;2023-04-12T04:27:04;1.20;;;0.40;;
68010;SDS011;54794;48.348;7.878;2023-04-12T04:29:31;0.50;;;0.25;;
68010;SDS011;54794;48.348;7.878;2023-04-12T04:31:58;0.30;;;0.20;;
68010;SDS011;54794;48.348;7.878;2023-04-12T04:34:25;3.20;;;0.30;;
68010;SDS011;54794;48.348;7.878;2023-04-12T04:36:53;1.23;;;0.30;;
68010;SDS011;54794;48.348;7.878;2023-04-12T04:39:19;1.05;;;0.63;;
68010;SDS011;54794;48.348;7.878;2023-04-12T04:41:46;0.73;;;0.35;;
68010;SDS011;54794;48.348;7.878;2023-04-12T04:44:20;2.15;;;0.45;;
68010;SDS011;54794;48.348;7.878;2023-04-12T04:46:47;0.70;;;0.30;;
68010;SDS011;54794;48.348;7.878;2023-04-12T04:49:14;1.02;;;0.40;;
68010;SDS011;54794;48.348;7.878;2023-04-12T04:51:41;0.32;;;0.30;;
68010;SDS011;54794;48.348;7.878;2023-04-12T04:54:08;0.60;;;0.30;;
68010;SDS011;54794;48.348;7.878;2023-04-12T04:56:35;0.82;;;0.30;;
68010;SDS011;54794;48.348;7.878;2023-04-12T04:59:02;0.70;;;0.30;;
68010;SDS011;54794;48.348;7.878;2023-04-12T05:01:29;0.60;;;0.30;;
68010;SDS011;54794;48.348;7.878;2023-04-12T05:03:57;0.40;;;0.20;;
68010;SDS011;54794;48.348;7.878;2023-04-12T05:06:24;0.85;;;0.40;;
68010;SDS011;54794;48.348;7.878;2023-04-12T05:08:52;1.13;;;0.25;;
68010;SDS011;54794;48.348;7.878;2023-04-12T05:11:19;1.10;;;0.30;;
68010;SDS011;54794;48.348;7.878;2023-04-12T05:13:46;1.08;;;0.30;;
68010;SDS011;54794;48.348;7.878;2023-04-12T05:16:13;0.70;;;0.30;;
68010;SDS011;54794;48.348;7.878;2023-04-12T05:18:40;1.90;;;0.40;;
68010;SDS011;54794;48.348;7.878;2023-04-12T05:21:07;0.80;;;0.40;;
68010;SDS011;54794;48.348;7.878;2023-04-12T05:23:35;1.02;;;0.40;;
68010;SDS011;54794;48.348;7.878;2023-04-12T05:26:03;0.50;;;0.30;;
68010;SDS011;54794;48.348;7.878;2023-04-12T05:28:30;0.98;;;0.35;;
68010;SDS011;54794;48.348;7.878;2023-04-12T05:30:57;0.50;;;0.30;;
68010;SDS011;54794;48.348;7.878;2023-04-12T05:33:24;0.65;;;0.30;;
68010;SDS011;54794;48.348;7.878;2023-04-12T05:35:51;0.90;;;0.47;;
68010;SDS011;54794;48.348;7.878;2023-04-12T05:38:18;0.60;;;0.28;;
68010;SDS011;54794;48.348;7.878;2023-04-12T05:40:46;0.28;;;0.20;;
68010;SDS011;54794;48.348;7.878;2023-04-12T05:43:15;1.00;;;0.32;;
68010;SDS011;54794;48.348;7.878;2023-04-12T05:48:09;0.88;;;0.40;;
68010;SDS011;54794;48.348;7.878;2023-04-12T05:50:36;0.50;;;0.38;;
68010;SDS011;54794;48.348;7.878;2023-04-12T05:53:03;0.75;;;0.30;;
68010;SDS011;54794;48.348;7.878;2023-04-12T05:55:31;1.35;;;0.40;;
68010;SDS011;54794;48.348;7.878;2023-04-12T05:58:00;1.30;;;0.30;;
68010;SDS011;54794;48.348;7.878;2023-04-12T06:00:27;0.70;;;0.32;;
68010;SDS011;54794;48.348;7.878;2023-04-12T06:02:54;0.68;;;0.22;;
68010;SDS011;54794;48.348;7.878;2023-04-12T06:05:23;0.82;;;0.32;;
68010;SDS011;54794;48.348;7.878;2023-04-12T06:07:50;0.90;;;0.35;;
68010;SDS011;54794;48.348;7.878;2023-04-12T06:10:17;3.50;;;0.50;;
68010;SDS011;54794;48.348;7.878;2023-04-12T06:12:44;0.55;;;0.30;;
68010;SDS011;54794;48.348;7.878;2023-04-12T06:15:12;1.02;;;0.40;;
68010;SDS011;54794;48.348;7.878;2023-04-12T06:17:39;0.75;;;0.50;;
68010;SDS011;54794;48.348;7.878;2023-04-12T06:20:06;1.00;;;0.60;;
68010;SDS011;54794;48.348;7.878;2023-04-12T06:22:35;1.77;;;0.60;;
68010;SDS011;54794;48.348;7.878;2023-04-12T06:25:03;1.67;;;0.45;;
68010;SDS011;54794;48.348;7.878;2023-04-12T06:27:30;0.93;;;0.50;;
68010;SDS011;54794;48.348;7.878;2023-04-12T06:29:57;1.27;;;0.52;;
68010;SDS011;54794;48.348;7.878;2023-04-12T06:32:24;2.40;;;0.50;;
68010;SDS011;54794;48.348;7.878;2023-04-12T06:34:54;1.20;;;0.50;;
68010;SDS011;54794;48.348;7.878;2023-04-12T06:37:24;0.88;;;0.40;;
68010;SDS011;54794;48.348;7.878;2023-04-12T06:39:51;1.60;;;0.67;;
68010;SDS011;54794;48.348;7.878;2023-04-12T06:42:18;0.80;;;0.40;;
68010;SDS011;54794;48.348;7.878;2023-04-12T06:44:45;0.77;;;0.40;;
68010;SDS011;54794;48.348;7.878;2023-04-12T06:47:12;1.45;;;0.45;;
68010;SDS011;54794;48.348;7.878;2023-04-12T06:49:39;1.42;;;0.60;;
68010;SDS011;54794;48.348;7.878;2023-04-12T06:52:06;1.63;;;0.47;;
68010;SDS011;54794;48.348;7.878;2023-04-12T06:54:36;0.55;;;0.45;;
68010;SDS011;54794;48.348;7.878;2023-04-12T06:57:08;1.35;;;0.38;;
68010;SDS011;54794;48.348;7.878;2023-04-12T06:59:38;1.02;;;0.60;;
68010;SDS011;54794;48.348;7.878;2023-04-12T07:02:05;0.68;;;0.40;;
68010;SDS011;54794;48.348;7.878;2023-04-12T07:07:00;0.93;;;0.45;;
68010;SDS011;54794;48.348;7.878;2023-04-12T07:09:29;0.55;;;0.30;;
68010;SDS011;54794;48.348;7.878;2023-04-12T07:11:58;0.52;;;0.30;;
68010;SDS011;54794;48.348;7.878;2023-04-12T07:14:26;0.98;;;0.35;;
68010;SDS011;54794;48.348;7.878;2023-04-12T07:16:53;1.92;;;0.50;;
68010;SDS011;54794;48.348;7.878;2023-04-12T07:19:23;1.50;;;0.68;;
68010;SDS011;54794;48.348;7.878;2023-04-12T07:21:51;0.80;;;0.45;;
68010;SDS011;54794;48.348;7.878;2023-04-12T07:24:20;0.65;;;0.50;;
68010;SDS011;54794;48.348;7.878;2023-04-12T07:26:47;1.42;;;0.68;;
68010;SDS011;54794;48.348;7.878;2023-04-12T07:29:14;4.03;;;1.42;;
68010;SDS011;54794;48.348;7.878;2023-04-12T07:31:42;5.15;;;1.55;;
68010;SDS011;54794;48.348;7.878;2023-04-12T07:34:09;3.55;;;1.65;;
68010;SDS011;54794;48.348;7.878;2023-04-12T07:36:37;2.40;;;1.25;;
68010;SDS011;54794;48.348;7.878;2023-04-12T07:39:04;1.45;;;0.70;;
68010;SDS011;54794;48.348;7.878;2023-04-12T07:41:31;2.22;;;0.70;;
68010;SDS011;54794;48.348;7.878;2023-04-12T07:43:58;1.40;;;0.70;;
68010;SDS011;54794;48.348;7.878;2023-04-12T07:46:24;2.92;;;0.50;;
68010;SDS011;54794;48.348;7.878;2023-04-12T07:48:51;2.80;;;0.70;;
68010;SDS011;54794;48.348;7.878;2023-04-12T07:51:18;0.57;;;0.40;;
68010;SDS011;54794;48.348;7.878;2023-04-12T07:53:45;1.73;;;0.50;;
68010;SDS011;54794;48.348;7.878;2023-04-12T07:56:13;0.82;;;0.47;;
68010;SDS011;54794;48.348;7.878;2023-04-12T07:58:40;1.45;;;0.50;;
68010;SDS011;54794;48.348;7.878;2023-04-12T08:01:07;0.95;;;0.47;;
68010;SDS011;54794;48.348;7.878;2023-04-12T08:03:38;1.15;;;0.30;;
68010;SDS011;54794;48.348;7.878;2023-04-12T08:06:05;1.08;;;0.40;;
68010;SDS011;54794;48.348;7.878;2023-04-12T08:08:33;4.68;;;0.52;;
68010;SDS011;54794;48.348;7.878;2023-04-12T08:11:00;1.52;;;0.57;;
68010;SDS011;54794;48.348;7.878;2023-04-12T08:15:55;1.48;;;0.50;;
68010;SDS011;54794;48.348;7.878;2023-04-12T08:18:22;1.05;;;0.40;;
68010;SDS011;54794;48.348;7.878;2023-04-12T08:20:48;1.58;;;0.40;;
68010;SDS011;54794;48.348;7.878;2023-04-12T08:23:16;1.50;;;0.50;;
68010;SDS011;54794;48.348;7.878;2023-04-12T08:25:43;0.40;;;0.30;;
68010;SDS011;54794;48.348;7.878;2023-04-12T08:28:10;1.80;;;0.60;;
68010;SDS011;54794;48.348;7.878;2023-04-12T08:30:37;1.92;;;0.55;;
68010;SDS011;54794;48.348;7.878;2023-04-12T08:33:04;1.58;;;0.75;;
68010;SDS011;54794;48.348;7.878;2023-04-12T08:35:31;2.47;;;0.60;;
68010;SDS011;54794;48.348;7.878;2023-04-12T08:37:59;3.13;;;0.80;;
68010;SDS011;54794;48.348;7.878;2023-04-12T08:40:32;2.20;;;0.85;;
68010;SDS011;54794;48.348;7.878;2023-04-12T08:43:00;2.85;;;0.90;;
68010;SDS011;54794;48.348;7.878;2023-04-12T08:45:32;1.55;;;0.50;;
68010;SDS011;54794;48.348;7.878;2023-04-12T08:48:02;2.58;;;0.65;;
68010;SDS011;54794;48.348;7.878;2023-04-12T08:50:31;0.95;;;0.60;;
68010;SDS011;54794;48.348;7.878;2023-04-12T08:52:58;4.35;;;0.88;;
68010;SDS011;54794;48.348;7.878;2023-04-12T08:55:25;1.23;;;0.60;;
68010;SDS011;54794;48.348;7.878;2023-04-12T08:57:53;1.80;;;0.50;;
68010;SDS011;54794;48.348;7.878;2023-04-12T09:00:21;0.93;;;0.50;;
68010;SDS011;54794;48.348;7.878;2023-04-12T09:05:16;3.65;;;0.60;;
68010;SDS011;54794;48.348;7.878;2023-04-12T09:07:43;2.22;;;0.65;;
68010;SDS011;54794;48.348;7.878;2023-04-12T09:10:10;1.05;;;0.50;;
68010;SDS011;54794;48.348;7.878;2023-04-12T09:13:04;2.15;;;0.50;;
68010;SDS011;54794;48.348;7.878;2023-04-12T09:15:32;1.45;;;0.68;;
68010;SDS011;54794;48.348;7.878;2023-04-12T09:18:07;2.63;;;0.63;;
68010;SDS011;54794;48.348;7.878;2023-04-12T09:20:36;1.50;;;0.40;;
68010;SDS011;54794;48.348;7.878;2023-04-12T09:23:20;1.40;;;0.40;;
68010;SDS011;54794;48.348;7.878;2023-04-12T09:25:51;0.77;;;0.40;;
68010;SDS011;54794;48.348;7.878;2023-04-12T09:30:56;1.33;;;0.57;;
68010;SDS011;54794;48.348;7.878;2023-04-12T09:33:33;2.45;;;0.70;;
68010;SDS011;54794;48.348;7.878;2023-04-12T09:36:05;0.80;;;0.50;;
68010;SDS011;54794;48.348;7.878;2023-04-12T09:38:39;3.33;;;0.57;;
68010;SDS011;54794;48.348;7.878;2023-04-12T09:41:23;2.10;;;0.60;;
68010;SDS011;54794;48.348;7.878;2023-04-12T09:43:59;1.13;;;0.35;;
68010;SDS011;54794;48.348;7.878;2023-04-12T09:46:27;3.08;;;0.70;;
68010;SDS011;54794;48.348;7.878;2023-04-12T09:48:55;3.35;;;0.75;;
68010;SDS011;54794;48.348;7.878;2023-04-12T09:51:29;0.95;;;0.60;;
68010;SDS011;54794;48.348;7.878;2023-04-12T09:53:59;1.58;;;0.68;;
68010;SDS011;54794;48.348;7.878;2023-04-12T09:56:32;1.02;;;0.35;;
68010;SDS011;54794;48.348;7.878;2023-04-12T09:59:03;1.88;;;0.70;;
68010;SDS011;54794;48.348;7.878;2023-04-12T10:01:35;1.45;;;0.50;;
68010;SDS011;54794;48.348;7.878;2023-04-12T10:04:05;1.52;;;0.60;;
68010;SDS011;54794;48.348;7.878;2023-04-12T10:06:35;1.00;;;0.52;;
68010;SDS011;54794;48.348;7.878;2023-04-12T10:09:03;0.60;;;0.50;;
68010;SDS011;54794;48.348;7.878;2023-04-12T10:11:32;0.82;;;0.60;;
68010;SDS011;54794;48.348;7.878;2023-04-12T10:14:07;1.65;;;0.60;;
68010;SDS011;54794;48.348;7.878;2023-04-12T10:16:35;1.67;;;0.68;;
68010;SDS011;54794;48.348;7.878;2023-04-12T10:19:09;2.70;;;0.88;;
68010;SDS011;54794;48.348;7.878;2023-04-12T10:21:40;2.25;;;0.57;;
68010;SDS011;54794;48.348;7.878;2023-04-12T10:24:12;1.40;;;0.75;;
68010;SDS011;54794;48.348;7.878;2023-04-12T10:26:44;1.55;;;0.40;;
68010;SDS011;54794;48.348;7.878;2023-04-12T10:32:16;2.75;;;0.90;;
68010;SDS011;54794;48.348;7.878;2023-04-12T10:34:54;1.30;;;0.50;;
68010;SDS011;54794;48.348;7.878;2023-04-12T10:37:55;0.95;;;0.57;;
68010;SDS011;54794;48.348;7.878;2023-04-12T10:40:29;2.15;;;0.60;;
68010;SDS011;54794;48.348;7.878;2023-04-12T10:45:53;1.50;;;0.60;;
68010;SDS011;54794;48.348;7.878;2023-04-12T10:48:49;2.70;;;0.82;;
68010;SDS011;54794;48.348;7.878;2023-04-12T10:51:19;1.60;;;0.50;;
68010;SDS011;54794;48.348;7.878;2023-04-12T10:54:37;1.95;;;0.60;;
68010;SDS011;54794;48.348;7.878;2023-04-12T10:56:45;2.45;;;0.63;;
68010;SDS011;54794;48.348;7.878;2023-04-12T10:59:13;1.33;;;0.60;;
68010;SDS011;54794;48.348;7.878;2023-04-12T11:02:28;2.88;;;0.57;;
68010;SDS011;54794;48.348;7.878;2023-04-12T11:04:37;1.27;;;0.50;;
68010;SDS011;54794;48.348;7.878;2023-04-12T11:07:38;2.25;;;0.73;;
68010;SDS011;54794;48.348;7.878;2023-04-12T11:10:13;1.50;;;0.70;;
68010;SDS011;54794;48.348;7.878;2023-04-12T11:12:47;1.33;;;0.63;;
68010;SDS011;54794;48.348;7.878;2023-04-12T11:15:15;1.35;;;0.50;;
68010;SDS011;54794;48.348;7.878;2023-04-12T11:17:51;2.00;;;0.75;;
68010;SDS011;54794;48.348;7.878;2023-04-12T11:20:20;2.45;;;0.68;;
68010;SDS011;54794;48.348;7.878;2023-04-12T11:25:16;0.85;;;0.52;;
68010;SDS011;54794;48.348;7.878;2023-04-12T11:27:50;1.08;;;0.57;;
68010;SDS011;54794;48.348;7.878;2023-04-12T11:30:19;1.10;;;0.57;;
68010;SDS011;54794;48.348;7.878;2023-04-12T11:32:50;4.50;;;1.33;;
68010;SDS011;54794;48.348;7.878;2023-04-12T11:35:23;3.20;;;1.00;;
68010;SDS011;54794;48.348;7.878;2023-04-12T11:38:02;2.00;;;0.60;;
68010;SDS011;54794;48.348;7.878;2023-04-12T11:40:29;1.75;;;0.70;;
68010;SDS011;54794;48.348;7.878;2023-04-12T11:43:02;1.88;;;0.68;;
68010;SDS011;54794;48.348;7.878;2023-04-12T11:45:30;2.30;;;0.70;;
68010;SDS011;54794;48.348;7.878;2023-04-12T11:47:58;1.48;;;0.55;;
68010;SDS011;54794;48.348;7.878;2023-04-12T11:50:28;1.27;;;0.60;;
68010;SDS011;54794;48.348;7.878;2023-04-12T11:53:08;1.73;;;0.40;;
68010;SDS011;54794;48.348;7.878;2023-04-12T11:59:11;1.55;;;0.60;;
68010;SDS011;54794;48.348;7.878;2023-04-12T12:01:39;1.20;;;0.70;;
68010;SDS011;54794;48.348;7.878;2023-04-12T12:04:07;1.13;;;0.55;;
68010;SDS011;54794;48.348;7.878;2023-04-12T12:06:37;1.77;;;0.60;;
68010;SDS011;54794;48.348;7.878;2023-04-12T12:09:05;0.77;;;0.45;;
68010;SDS011;54794;48.348;7.878;2023-04-12T12:11:32;0.55;;;0.38;;
68010;SDS011;54794;48.348;7.878;2023-04-12T12:13:59;1.23;;;0.50;;
68010;SDS011;54794;48.348;7.878;2023-04-12T12:16:27;0.95;;;0.40;;
68010;SDS011;54794;48.348;7.878;2023-04-12T12:18:56;0.68;;;0.30;;
68010;SDS011;54794;48.348;7.878;2023-04-12T12:21:23;0.80;;;0.50;;
68010;SDS011;54794;48.348;7.878;2023-04-12T12:23:52;1.02;;;0.40;;
68010;SDS011;54794;48.348;7.878;2023-04-12T12:26:26;1.27;;;0.50;;
68010;SDS011;54794;48.348;7.878;2023-04-12T12:28:54;2.13;;;0.50;;
68010;SDS011;54794;48.348;7.878;2023-04-12T12:31:26;0.30;;;0.20;;
68010;SDS011;54794;48.348;7.878;2023-04-12T12:33:54;0.57;;;0.32;;
68010;SDS011;54794;48.348;7.878;2023-04-12T12:36:33;1.58;;;0.55;;
68010;SDS011;54794;48.348;7.878;2023-04-12T12:39:02;1.05;;;0.38;;
68010;SDS011;54794;48.348;7.878;2023-04-12T12:41:40;2.10;;;0.50;;
68010;SDS011;54794;48.348;7.878;2023-04-12T12:44:07;1.30;;;0.47;;
68010;SDS011;54794;48.348;7.878;2023-04-12T12:46:36;1.60;;;0.40;;
68010;SDS011;54794;48.348;7.878;2023-04-12T12:49:06;2.13;;;0.40;;
68010;SDS011;54794;48.348;7.878;2023-04-12T12:51:33;0.60;;;0.40;;
68010;SDS011;54794;48.348;7.878;2023-04-12T12:53:59;1.02;;;0.40;;
68010;SDS011;54794;48.348;7.878;2023-04-12T12:56:26;1.38;;;0.30;;
68010;SDS011;54794;48.348;7.878;2023-04-12T12:58:53;0.38;;;0.20;;
68010;SDS011;54794;48.348;7.878;2023-04-12T13:03:48;0.47;;;0.30;;
68010;SDS011;54794;48.348;7.878;2023-04-12T13:06:15;0.90;;;0.40;;
68010;SDS011;54794;48.348;7.878;2023-04-12T13:08:42;0.47;;;0.30;;
68010;SDS011;54794;48.348;7.878;2023-04-12T13:11:09;1.15;;;0.30;;
68010;SDS011;54794;48.348;7.878;2023-04-12T13:13:36;0.95;;;0.40;;
68010;SDS011;54794;48.348;7.878;2023-04-12T13:16:03;0.88;;;0.40;;
68010;SDS011;54794;48.348;7.878;2023-04-12T13:18:30;1.35;;;0.40;;
68010;SDS011;54794;48.348;7.878;2023-04-12T13:20:57;0.43;;;0.30;;
68010;SDS011;54794;48.348;7.878;2023-04-12T13:23:26;0.75;;;0.30;;
68010;SDS011;54794;48.348;7.878;2023-04-12T13:25:53;1.38;;;0.40;;
68010;SDS011;54794;48.348;7.878;2023-04-12T13:28:20;1.30;;;0.30;;
68010;SDS011;54794;48.348;7.878;2023-04-12T13:33:14;0.40;;;0.20;;
68010;SDS011;54794;48.348;7.878;2023-04-12T13:35:46;1.00;;;0.40;;
68010;SDS011;54794;48.348;7.878;2023-04-12T13:38:13;0.50;;;0.30;;
68010;SDS011;54794;48.348;7.878;2023-04-12T13:40:40;0.95;;;0.38;;
68010;SDS011;54794;48.348;7.878;2023-04-12T13:43:07;0.43;;;0.30;;
68010;SDS011;54794;48.348;7.878;2023-04-12T13:45:34;1.35;;;0.47;;
68010;SDS011;54794;48.348;7.878;2023-04-12T13:48:01;0.80;;;0.32;;
68010;SDS011;54794;48.348;7.878;2023-04-12T13:50:28;0.63;;;0.40;;
68010;SDS011;54794;48.348;7.878;2023-04-12T13:52:55;1.20;;;0.40;;
68010;SDS011;54794;48.348;7.878;2023-04-12T13:55:22;1.80;;;0.43;;
68010;SDS011;54794;48.348;7.878;2023-04-12T13:57:49;0.80;;;0.30;;
68010;SDS011;54794;48.348;7.878;2023-04-12T14:00:16;1.42;;;0.32;;
68010;SDS011;54794;48.348;7.878;2023-04-12T14:02:44;1.17;;;0.30;;
68010;SDS011;54794;48.348;7.878;2023-04-12T14:05:11;7.10;;;0.40;;
68010;SDS011;54794;48.348;7.878;2023-04-12T14:07:39;0.68;;;0.30;;
68010;SDS011;54794;48.348;7.878;2023-04-12T14:10:06;0.15;;;0.05;;
68010;SDS011;54794;48.348;7.878;2023-04-12T14:12:33;0.32;;;0.03;;
68010;SDS011;54794;48.348;7.878;2023-04-12T14:15:01;0.00;;;0.00;;
68010;SDS011;54794;48.348;7.878;2023-04-12T14:19:58;0.15;;;0.10;;
68010;SDS011;54794;48.348;7.878;2023-04-12T14:22:25;0.93;;;0.20;;
68010;SDS011;54794;48.348;7.878;2023-04-12T14:24:53;0.00;;;0.00;;
68010;SDS011;54794;48.348;7.878;2023-04-12T14:27:20;0.03;;;0.00;;
68010;SDS011;54794;48.348;7.878;2023-04-12T14:29:47;0.25;;;0.00;;
68010;SDS011;54794;48.348;7.878;2023-04-12T14:32:14;0.15;;;0.00;;
68010;SDS011;54794;48.348;7.878;2023-04-12T14:34:42;0.47;;;0.05;;
68010;SDS011;54794;48.348;7.878;2023-04-12T14:37:09;0.00;;;0.00;;
68010;SDS011;54794;48.348;7.878;2023-04-12T14:39:36;1.88;;;0.08;;
68010;SDS011;54794;48.348;7.878;2023-04-12T14:42:04;0.00;;;0.00;;
68010;SDS011;54794;48.348;7.878;2023-04-12T14:44:31;1.08;;;0.00;;
68010;SDS011;54794;48.348;7.878;2023-04-12T14:46:58;0.73;;;0.10;;
68010;SDS011;54794;48.348;7.878;2023-04-12T14:49:25;0.32;;;0.20;;
68010;SDS011;54794;48.348;7.878;2023-04-12T14:51:55;0.45;;;0.30;;
68010;SDS011;54794;48.348;7.878;2023-04-12T14:54:22;1.48;;;0.30;;
68010;SDS011;54794;48.348;7.878;2023-04-12T14:56:49;0.55;;;0.30;;
68010;SDS011;54794;48.348;7.878;2023-04-12T14:59:21;0.50;;;0.10;;
68010;SDS011;54794;48.348;7.878;2023-04-12T15:01:48;0.30;;;0.17;;
68010;SDS011;54794;48.348;7.878;2023-04-12T15:04:18;0.38;;;0.17;;
68010;SDS011;54794;48.348;7.878;2023-04-12T15:06:45;0.32;;;0.10;;
68010;SDS011;54794;48.348;7.878;2023-04-12T15:09:12;0.30;;;0.10;;
68010;SDS011;54794;48.348;7.878;2023-04-12T15:11:42;0.20;;;0.08;;
68010;SDS011;54794;48.348;7.878;2023-04-12T15:14:14;0.20;;;0.10;;
68010;SDS011;54794;48.348;7.878;2023-04-12T15:16:43;0.82;;;0.00;;
68010;SDS011;54794;48.348;7.878;2023-04-12T15:19:11;0.40;;;0.10;;
68010;SDS011;54794;48.348;7.878;2023-04-12T15:21:50;0.10;;;0.10;;
68010;SDS011;54794;48.348;7.878;2023-04-12T15:24:17;0.10;;;0.10;;
68010;SDS011;54794;48.348;7.878;2023-04-12T15:26:46;0.20;;;0.10;;
68010;SDS011;54794;48.348;7.878;2023-04-12T15:29:18;0.50;;;0.20;;
68010;SDS011;54794;48.348;7.878;2023-04-12T15:31:48;0.82;;;0.20;;
68010;SDS011;54794;48.348;7.878;2023-04-12T15:34:15;0.20;;;0.13;;
68010;SDS011;54794;48.348;7.878;2023-04-12T15:36:42;0.63;;;0.40;;
68010;SDS011;54794;48.348;7.878;2023-04-12T15:39:11;2.28;;;0.40;;
68010;SDS011;54794;48.348;7.878;2023-04-12T15:41:38;0.68;;;0.22;;
68010;SDS011;54794;48.348;7.878;2023-04-12T15:44:07;0.40;;;0.20;;
68010;SDS011;54794;48.348;7.878;2023-04-12T15:46:39;0.25;;;0.20;;
68010;SDS011;54794;48.348;7.878;2023-04-12T15:49:07;0.50;;;0.30;;
68010;SDS011;54794;48.348;7.878;2023-04-12T15:51:35;0.30;;;0.20;;
68010;SDS011;54794;48.348;7.878;2023-04-12T15:54:03;0.77;;;0.20;;
68010;SDS011;54794;48.348;7.878;2023-04-12T15:58:59;1.27;;;0.50;;
68010;SDS011;54794;48.348;7.878;2023-04-12T16:01:27;1.80;;;0.88;;